Terminal Aerodrome Forecast
Issued by NWS Mt. Holly, NJ

Home | Current Version | Previous Version | Text Only | Print | Product List | Glossary On
Versions: 1 2 3 4 5 6 7 8 9 10 11 12 13 14 15 16 17 18 19 20 21 22 23 24 25 26 27 28
000
FTUS41 KPHI 051739
TAFRDG
TAF
KRDG 051739Z 0518/0618 36007KT 1SM -SN OVC015
      TEMPO 0518/0520 1/4SM +SN FG VV006
     FM052000 35008KT P6SM OVC025
     FM060000 32005KT P6SM BKN100=

USA.gov is the U.S. government's official web portal to all federal, state and local government web resources and services.